ΕΜΥ, Εθνική Μετεωρολογική Υπηρεσία - Δελτία Καιρού, Προγνώσεις

ΑΕΡΟΝΑΥΤΙΛΙΑ

GREEK AIRPORTS CODES

TAF LGTS 112300Z 1200/1224 34012KT 9999 FEW008 BKN025 PROB40 TEMPO 1200/1215 5000 RA BECMG 1218/1220 VRB03KT FEW010 SCT025=

EUROPEAN AIRPORTS CODES